Time;durP1;ratioP1;P1;durP2;ratioP2;P2;SDS_P1;SDS_P2;PMS_P1;PMS_P2;Temp;Humidity;BMP_temperature;BMP_pressure;BME280_temperature;BME280_humidity;BME280_pressure;Samples;Min_cycle;Max_cycle;Signal;HPM_P1;HPM_P2
2021/01/29 00:00:32;;;;;;;2.90;1.80;;;;;;;6.99;100.00;94860.88;1053319;28;20032;-66
2021/01/29 00:01:03;;;;;;;4.72;1.75;;;;;;;6.98;100.00;94856.66;1053275;28;20009;-66
2021/01/29 00:01:33;;;;;;;2.70;1.70;;;;;;;6.98;100.00;94856.66;1053247;28;20020;-65
2021/01/29 00:02:03;;;;;;;2.57;1.70;;;;;;;6.97;100.00;94860.38;1053295;28;20008;-65
2021/01/29 00:02:34;;;;;;;3.20;1.80;;;;;;;6.98;100.00;94865.41;1053331;28;20069;-65
2021/01/29 00:03:08;;;;;;;2.73;1.90;;;;;;;6.99;100.00;94863.53;1053303;28;20012;-65
2021/01/29 00:03:38;;;;;;;2.60;1.90;;;;;;;7.00;100.00;94857.94;1053255;28;20028;-65
2021/01/29 00:04:08;;;;;;;2.53;1.83;;;;;;;6.98;100.00;94860.09;1052956;28;20509;-65
2021/01/29 00:04:40;;;;;;;2.63;1.90;;;;;;;6.98;100.00;94862.75;1053344;28;20059;-65
2021/01/29 00:05:10;;;;;;;3.00;2.00;;;;;;;6.97;100.00;94853.19;1053214;28;20019;-66
2021/01/29 00:05:43;;;;;;;2.90;1.90;;;;;;;6.96;100.00;94859.59;1053187;28;20520;-65
2021/01/29 00:06:13;;;;;;;2.60;1.90;;;;;;;6.93;100.00;94857.47;1053236;28;20522;-65
2021/01/29 00:06:44;;;;;;;2.90;1.93;;;;;;;6.95;100.00;94859.84;1053099;28;20139;-65
2021/01/29 00:07:14;;;;;;;1.80;1.50;;;;;;;6.96;100.00;94856.94;1053319;28;20502;-65
2021/01/29 00:07:45;;;;;;;3.27;2.00;;;;;;;6.96;100.00;94859.59;1053170;28;20082;-66
2021/01/29 00:08:15;;;;;;;2.80;1.90;;;;;;;6.94;100.00;94861.69;1054204;28;20036;-65
2021/01/29 00:08:46;;;;;;;3.43;2.20;;;;;;;6.94;100.00;94871.53;1055566;28;20023;-65
2021/01/29 00:09:16;;;;;;;3.70;2.03;;;;;;;6.94;100.00;94856.38;1054823;28;20016;-66
2021/01/29 00:09:47;;;;;;;3.40;1.80;;;;;;;6.97;100.00;94863.81;1053977;28;20077;-65
2021/01/29 00:10:17;;;;;;;2.77;1.93;;;;;;;6.97;100.00;94865.69;1053478;28;20369;-65
2021/01/29 00:10:49;;;;;;;3.70;2.00;;;;;;;6.97;100.00;94852.41;1053263;28;20480;-65
2021/01/29 00:11:19;;;;;;;3.20;2.13;;;;;;;7.00;100.00;94860.59;1053037;28;20023;-65
2021/01/29 00:11:50;;;;;;;2.73;2.10;;;;;;;7.00;100.00;94865.91;1048301;28;20028;-65
2021/01/29 00:12:23;;;;;;;2.70;2.03;;;;;;;6.98;100.00;94857.44;1048878;28;20453;-65
2021/01/29 00:12:53;;;;;;;2.75;2.00;;;;;;;6.98;100.00;94859.31;1049076;28;20099;-65
2021/01/29 00:13:25;;;;;;;3.03;2.23;;;;;;;6.99;100.00;94853.72;1052564;28;20024;-65
2021/01/29 00:13:55;;;;;;;3.38;2.22;;;;;;;6.99;100.00;94856.38;1049011;28;20172;-65
2021/01/29 00:14:25;;;;;;;3.20;2.17;;;;;;;6.96;100.00;94848.13;1049040;28;20173;-65
2021/01/29 00:14:56;;;;;;;4.37;2.20;;;;;;;6.97;100.00;94844.44;1049073;28;20074;-65
2021/01/29 00:15:26;;;;;;;3.00;2.20;;;;;;;6.95;100.00;94846.56;1049077;28;20074;-65
2021/01/29 00:15:57;;;;;;;3.23;2.40;;;;;;;6.92;100.00;94847.91;1048811;28;20031;-66
2021/01/29 00:16:27;;;;;;;3.20;2.10;;;;;;;6.94;100.00;94844.97;1048642;28;20020;-65
2021/01/29 00:16:57;;;;;;;3.30;2.50;;;;;;;6.97;100.00;94847.88;1048764;28;20020;-65
2021/01/29 00:17:28;;;;;;;3.87;2.23;;;;;;;6.99;100.00;94853.72;1048714;28;20405;-65
2021/01/29 00:17:58;;;;;;;3.47;2.67;;;;;;;6.99;100.00;94851.06;1048905;28;20377;-65
2021/01/29 00:18:29;;;;;;;2.87;2.20;;;;;;;6.99;100.00;94852.91;1049017;28;20438;-65
2021/01/29 00:18:59;;;;;;;3.43;2.47;;;;;;;6.97;100.00;94844.44;1049038;28;20028;-65
2021/01/29 00:19:30;;;;;;;2.70;2.13;;;;;;;6.97;100.00;94857.72;1049045;28;20446;-65
2021/01/29 00:20:00;;;;;;;3.33;2.40;;;;;;;6.95;100.00;94844.69;1048571;28;20378;-65
2021/01/29 00:20:31;;;;;;;2.90;2.23;;;;;;;6.95;100.00;94847.34;1044570;28;20032;-65
2021/01/29 00:21:01;;;;;;;2.43;2.10;;;;;;;6.97;100.00;94844.44;1044549;28;20383;-65
2021/01/29 00:21:32;;;;;;;3.83;2.50;;;;;;;6.95;100.00;94844.69;1044974;28;20528;-65
2021/01/29 00:22:02;;;;;;;2.83;2.37;;;;;;;6.97;100.00;94842.56;1048656;28;20085;-65
2021/01/29 00:22:33;;;;;;;3.00;2.37;;;;;;;6.92;100.00;94845.25;1049013;28;20024;-65
2021/01/29 00:23:03;;;;;;;3.93;2.50;;;;;;;6.96;100.00;94848.97;1049052;28;20025;-65
2021/01/29 00:23:34;;;;;;;3.40;2.50;;;;;;;6.91;100.00;94843.69;1048950;28;20107;-65
2021/01/29 00:24:04;;;;;;;3.20;2.50;;;;;;;6.89;100.00;94852.97;1049068;28;20385;-65
2021/01/29 00:24:35;;;;;;;3.70;2.70;;;;;;;6.87;100.00;94845.28;1049024;28;20476;-66
2021/01/29 00:25:09;;;;;;;3.10;2.30;;;;;;;6.91;100.00;94840.19;1049103;28;20381;-65
2021/01/29 00:25:43;;;;;;;2.50;2.00;;;;;;;6.90;100.00;94839.41;1048943;28;20387;-65
2021/01/29 00:26:14;;;;;;;3.25;2.55;;;;;;;6.93;100.00;94841.53;1048763;28;20024;-65
2021/01/29 00:26:45;;;;;;;3.83;2.70;;;;;;;6.87;100.00;94842.63;1048856;28;20077;-66
2021/01/29 00:27:15;;;;;;;4.35;2.75;;;;;;;6.87;100.00;94836.53;1049055;28;20016;-65
2021/01/29 00:27:45;;;;;;;3.47;2.53;;;;;;;6.86;100.00;94837.56;1049027;28;20025;-65
2021/01/29 00:28:16;;;;;;;3.07;2.20;;;;;;;6.89;100.00;94843.13;1048854;28;20028;-65
2021/01/29 00:28:46;;;;;;;3.90;2.40;;;;;;;6.86;100.00;94842.88;1049027;28;20081;-65
2021/01/29 00:29:17;;;;;;;3.30;2.50;;;;;;;6.89;100.00;94845.00;1049026;28;20074;-65
2021/01/29 00:29:47;;;;;;;2.90;2.27;;;;;;;6.88;100.00;94846.06;1049007;28;20020;-65
2021/01/29 00:30:19;;;;;;;4.33;2.10;;;;;;;6.88;100.00;94852.19;1049012;28;20020;-65
2021/01/29 00:30:50;;;;;;;2.92;2.22;;;;;;;6.90;100.00;94843.94;1049007;28;20017;-65
2021/01/29 00:31:21;;;;;;;3.03;2.20;;;;;;;6.92;100.00;94841.81;1053001;28;20502;-65
2021/01/29 00:31:51;;;;;;;3.10;2.30;;;;;;;6.89;100.00;94842.34;1054252;28;20035;-65
2021/01/29 00:32:22;;;;;;;3.03;2.40;;;;;;;6.89;100.00;94837.03;1053860;28;20036;-65
2021/01/29 00:32:52;;;;;;;3.63;2.33;;;;;;;6.88;100.00;94848.72;1053820;28;20024;-65
2021/01/29 00:33:24;;;;;;;3.20;2.10;;;;;;;6.88;100.00;94838.91;1053498;28;20535;-65
2021/01/29 00:33:55;;;;;;;2.95;2.20;;;;;;;6.89;100.00;94845.00;1054071;28;20019;-65
2021/01/29 00:34:25;;;;;;;3.13;2.10;;;;;;;6.90;100.00;94843.94;1055725;28;20545;-65
2021/01/29 00:34:55;;;;;;;2.47;2.00;;;;;;;6.93;100.00;94846.06;1057274;28;20032;-65
2021/01/29 00:35:29;;;;;;;3.10;2.00;;;;;;;6.93;100.00;94836.22;1057426;28;20023;-65
2021/01/29 00:35:59;;;;;;;2.35;1.98;;;;;;;6.92;100.00;94839.94;1057368;28;20047;-65
2021/01/29 00:36:30;;;;;;;3.97;2.30;;;;;;;6.91;100.00;94838.38;1054111;28;20028;-65
2021/01/29 00:37:00;;;;;;;3.40;2.20;;;;;;;6.89;100.00;94829.06;1053007;28;20020;-65
2021/01/29 00:37:31;;;;;;;2.43;1.93;;;;;;;6.88;100.00;94825.63;1052619;28;20462;-66
2021/01/29 00:38:01;;;;;;;2.70;2.13;;;;;;;6.93;100.00;94832.75;1053122;28;20024;-65
2021/01/29 00:38:32;;;;;;;2.93;2.30;;;;;;;6.88;100.00;94833.59;1056525;28;20016;-65
2021/01/29 00:39:03;;;;;;;2.90;1.93;;;;;;;6.89;100.00;94834.38;1058602;28;20027;-65
2021/01/29 00:39:33;;;;;;;3.10;2.15;;;;;;;6.88;100.00;94833.59;1059452;27;20460;-66
2021/01/29 00:40:04;;;;;;;2.77;2.13;;;;;;;6.92;100.00;94834.63;1059371;28;20126;-66
2021/01/29 00:40:35;;;;;;;2.90;2.30;;;;;;;6.91;100.00;94832.22;1055257;28;20035;-66
2021/01/29 00:41:05;;;;;;;2.93;2.00;;;;;;;6.94;100.00;94831.69;1054507;28;20024;-66
2021/01/29 00:41:36;;;;;;;3.80;1.93;;;;;;;6.98;100.00;94835.41;1054514;28;20031;-66
2021/01/29 00:42:06;;;;;;;3.30;2.07;;;;;;;6.95;100.00;94833.28;1052886;28;20048;-65
2021/01/29 00:42:37;;;;;;;3.30;1.90;;;;;;;6.99;100.00;94834.31;1057284;28;20039;-65
2021/01/29 00:43:08;;;;;;;3.03;1.90;;;;;;;6.96;100.00;94833.03;1057284;28;20020;-65
2021/01/29 00:43:39;;;;;;;3.33;2.10;;;;;;;6.93;100.00;94828.25;1057269;28;20393;-65
2021/01/29 00:44:10;;;;;;;2.72;2.00;;;;;;;6.90;100.00;94828.00;1056847;27;20035;-65
2021/01/29 00:44:40;;;;;;;2.53;1.87;;;;;;;6.89;100.00;94831.72;1053096;28;20032;-65
2021/01/29 00:45:11;;;;;;;2.53;1.90;;;;;;;6.92;100.00;94831.19;1053130;28;20027;-65
2021/01/29 00:45:43;;;;;;;3.25;2.10;;;;;;;6.90;100.00;94828.78;1052799;28;20070;-65
2021/01/29 00:46:13;;;;;;;2.83;2.05;;;;;;;6.93;100.00;94832.75;1049264;28;20039;-65
2021/01/29 00:46:44;;;;;;;2.50;2.03;;;;;;;6.88;100.00;94830.94;1052834;28;20016;-64
2021/01/29 00:47:14;;;;;;;3.03;2.20;;;;;;;6.87;100.00;94823.25;1048750;28;20029;-65
2021/01/29 00:47:45;;;;;;;2.73;1.93;;;;;;;6.88;100.00;94827.47;1052469;28;20023;-64
2021/01/29 00:48:15;;;;;;;2.57;2.00;;;;;;;6.84;100.00;94824.56;1055357;28;20024;-65
2021/01/29 00:48:46;;;;;;;2.70;1.80;;;;;;;6.88;100.00;94824.81;1052841;28;20066;-65
2021/01/29 00:49:17;;;;;;;2.60;1.90;;;;;;;6.93;100.00;94830.91;1052973;28;20020;-65
2021/01/29 00:49:47;;;;;;;2.60;1.93;;;;;;;6.91;100.00;94834.88;1053122;28;20477;-64
2021/01/29 00:50:17;;;;;;;2.73;1.90;;;;;;;6.90;100.00;94834.09;1054451;28;20028;-66
2021/01/29 00:50:48;;;;;;;3.37;2.17;;;;;;;6.93;100.00;94835.41;1056820;28;20020;-65
2021/01/29 00:51:18;;;;;;;3.33;1.87;;;;;;;6.94;100.00;94832.47;1055439;28;20019;-64
2021/01/29 00:51:49;;;;;;;2.90;2.10;;;;;;;6.93;100.00;94830.91;1052514;28;20032;-65
2021/01/29 00:52:19;;;;;;;3.27;2.17;;;;;;;6.91;100.00;94833.06;1054269;28;20020;-65
2021/01/29 00:52:49;;;;;;;3.13;1.80;;;;;;;6.91;100.00;94825.09;1057068;28;20035;-65
2021/01/29 00:53:20;;;;;;;2.93;1.90;;;;;;;6.87;100.00;94831.22;1057147;28;20077;-64
2021/01/29 00:53:50;;;;;;;3.00;2.00;;;;;;;6.88;100.00;94836.25;1057282;28;20028;-65
2021/01/29 00:54:21;;;;;;;3.33;2.07;;;;;;;6.94;100.00;94837.00;1055236;28;20023;-64
2021/01/29 00:54:51;;;;;;;2.70;1.87;;;;;;;6.92;100.00;94831.19;1053053;28;20035;-65
2021/01/29 00:55:22;;;;;;;2.97;1.70;;;;;;;6.91;100.00;94834.88;1053070;28;20020;-65
2021/01/29 00:55:52;;;;;;;2.20;1.80;;;;;;;6.89;100.00;94829.84;1053016;28;20043;-64
2021/01/29 00:56:23;;;;;;;2.40;1.67;;;;;;;6.94;100.00;94832.47;1055133;28;20035;-65
2021/01/29 00:56:53;;;;;;;3.37;1.70;;;;;;;6.95;100.00;94839.38;1057209;28;20078;-65
2021/01/29 00:57:23;;;;;;;2.87;1.90;;;;;;;6.93;100.00;94828.25;1057262;28;20427;-65
2021/01/29 00:57:54;;;;;;;3.20;1.73;;;;;;;6.93;100.00;94832.75;1057214;28;20023;-65
2021/01/29 00:58:24;;;;;;;2.93;2.00;;;;;;;6.91;100.00;94834.88;1054796;28;20024;-65
2021/01/29 00:58:55;;;;;;;5.23;2.13;;;;;;;6.95;100.00;94834.06;1052667;28;20020;-65
2021/01/29 00:59:25;;;;;;;2.63;1.73;;;;;;;6.94;100.00;94839.66;1052762;28;20028;-65
2021/01/29 00:59:55;;;;;;;3.13;1.80;;;;;;;6.90;100.00;94844.72;1052422;28;20476;-65
2021/01/29 01:00:26;;;;;;;4.30;1.83;;;;;;;6.91;100.00;94837.53;1054881;28;20035;-65
2021/01/29 01:00:56;;;;;;;2.67;1.90;;;;;;;6.89;100.00;94837.03;1057339;28;20407;-65
2021/01/29 01:01:27;;;;;;;3.10;1.77;;;;;;;6.89;100.00;94837.81;1057236;28;20439;-65
2021/01/29 01:01:57;;;;;;;2.50;1.87;;;;;;;6.91;100.00;94842.84;1057180;28;20034;-65
2021/01/29 01:02:28;;;;;;;3.37;1.93;;;;;;;6.87;100.00;94841.84;1057190;28;20020;-65
2021/01/29 01:02:58;;;;;;;3.67;2.13;;;;;;;6.84;100.00;94840.50;1057221;28;20426;-65
2021/01/29 01:03:28;;;;;;;3.23;2.20;;;;;;;6.81;100.00;94842.91;1054783;28;20114;-65
2021/01/29 01:03:59;;;;;;;2.70;2.00;;;;;;;6.81;100.00;94841.06;1053444;28;20040;-65
2021/01/29 01:04:29;;;;;;;2.70;2.13;;;;;;;6.81;100.00;94843.72;1053000;28;20031;-65
2021/01/29 01:05:00;;;;;;;3.17;2.27;;;;;;;6.80;100.00;94841.31;1053000;28;20032;-65
2021/01/29 01:05:30;;;;;;;2.97;2.10;;;;;;;6.81;100.00;94840.25;1052925;28;20142;-65
2021/01/29 01:06:01;;;;;;;3.37;2.30;;;;;;;6.81;100.00;94835.75;1052876;28;20428;-65
2021/01/29 01:06:31;;;;;;;3.07;2.27;;;;;;;6.77;100.00;94838.16;1052852;28;20617;-65
2021/01/29 01:07:02;;;;;;;4.83;2.57;;;;;;;6.80;100.00;94828.03;1053105;28;20031;-65
2021/01/29 01:07:32;;;;;;;3.43;2.50;;;;;;;6.76;100.00;94835.78;1053043;28;20095;-65
2021/01/29 01:08:03;;;;;;;3.17;2.47;;;;;;;6.73;100.00;94833.66;1052802;28;20016;-65
2021/01/29 01:08:33;;;;;;;2.83;2.40;;;;;;;6.73;100.00;94831.81;1052899;28;20020;-65
2021/01/29 01:09:03;;;;;;;3.70;2.87;;;;;;;6.75;100.00;94831.53;1053153;28;20453;-65
2021/01/29 01:09:34;;;;;;;4.57;2.80;;;;;;;6.77;100.00;94834.72;1052953;28;20506;-65
2021/01/29 01:10:07;;;;;;;4.13;2.80;;;;;;;6.78;100.00;94836.28;1053029;28;20024;-65
2021/01/29 01:10:37;;;;;;;5.03;3.22;;;;;;;6.74;100.00;94829.94;1052884;28;20392;-65
2021/01/29 01:11:08;;;;;;;4.17;3.30;;;;;;;6.71;100.00;94831.28;1052992;28;20020;-65
2021/01/29 01:11:38;;;;;;;4.10;2.90;;;;;;;6.69;100.00;94830.75;1052881;28;20023;-65
2021/01/29 01:12:09;;;;;;;3.70;2.90;;;;;;;6.66;100.00;94831.31;1052979;28;20065;-65
2021/01/29 01:12:39;;;;;;;3.73;3.13;;;;;;;6.69;100.00;94835.28;1052970;28;20107;-65
2021/01/29 01:13:09;;;;;;;3.37;2.90;;;;;;;6.71;100.00;94833.94;1052962;28;20437;-65
2021/01/29 01:13:40;;;;;;;3.90;3.40;;;;;;;6.70;100.00;94828.88;1053008;28;20023;-65
2021/01/29 01:14:11;;;;;;;4.67;3.30;;;;;;;6.69;100.00;94827.31;1052877;28;20020;-65
2021/01/29 01:14:41;;;;;;;5.03;3.33;;;;;;;6.71;100.00;94828.63;1052960;28;20016;-65
2021/01/29 01:15:16;;;;;;;3.97;3.20;;;;;;;6.70;100.00;94832.34;1052963;28;20058;-65
2021/01/29 01:15:46;;;;;;;5.28;3.33;;;;;;;6.71;100.00;94831.28;1052971;28;20103;-65
2021/01/29 01:16:17;;;;;;;4.30;3.50;;;;;;;6.70;100.00;94829.69;1052954;28;20447;-65
2021/01/29 01:16:48;;;;;;;4.80;3.70;;;;;;;6.67;100.00;94818.84;1052995;28;20533;-65
2021/01/29 01:17:19;;;;;;;4.93;3.97;;;;;;;6.67;100.00;94819.63;1052732;28;20048;-65
2021/01/29 01:17:49;;;;;;;4.30;3.90;;;;;;;6.67;100.00;94822.28;1053036;28;20028;-65
2021/01/29 01:18:20;;;;;;;5.37;4.03;;;;;;;6.64;100.00;94825.47;1052931;28;20461;-65
2021/01/29 01:18:50;;;;;;;4.30;3.90;;;;;;;6.63;100.00;94817.78;1053034;28;20101;-65
2021/01/29 01:19:21;;;;;;;5.00;3.93;;;;;;;6.62;100.00;94817.00;1052918;28;20038;-65
2021/01/29 01:19:51;;;;;;;6.03;3.90;;;;;;;6.61;100.00;94819.94;1052933;28;20020;-65
2021/01/29 01:20:23;;;;;;;4.80;4.30;;;;;;;6.58;100.00;94818.59;1052979;28;20012;-65
2021/01/29 01:20:53;;;;;;;5.60;4.57;;;;;;;6.55;100.00;94818.34;1053040;28;20058;-65
2021/01/29 01:21:24;;;;;;;5.10;4.03;;;;;;;6.54;100.00;94812.25;1052818;28;20473;-65
2021/01/29 01:21:54;;;;;;;4.87;4.20;;;;;;;6.55;100.00;94816.47;1052944;28;20024;-65
2021/01/29 01:22:25;;;;;;;5.50;4.30;;;;;;;6.54;100.00;94814.91;1052933;28;20472;-65
2021/01/29 01:22:55;;;;;;;4.63;3.87;;;;;;;6.55;100.00;94808.53;1053115;28;20023;-65
2021/01/29 01:23:26;;;;;;;4.70;4.20;;;;;;;6.56;100.00;94804.03;1052607;28;20016;-65
2021/01/29 01:23:56;;;;;;;5.30;4.50;;;;;;;6.55;100.00;94810.38;1052690;28;20028;-65
2021/01/29 01:24:26;;;;;;;4.93;4.40;;;;;;;6.53;100.00;94810.66;1052686;28;20031;-65
2021/01/29 01:24:57;;;;;;;4.57;4.07;;;;;;;6.53;100.00;94813.31;1052696;28;20131;-65
2021/01/29 01:25:27;;;;;;;4.70;4.13;;;;;;;6.51;100.00;94818.91;1052917;28;20033;-65
2021/01/29 01:25:58;;;;;;;4.90;4.10;;;;;;;6.54;100.00;94809.59;1053024;28;20107;-65
2021/01/29 01:26:28;;;;;;;5.63;4.50;;;;;;;6.55;100.00;94808.53;1052849;28;20027;-65
2021/01/29 01:26:59;;;;;;;5.53;3.90;;;;;;;6.55;100.00;94810.38;1055722;28;20035;-65
2021/01/29 01:27:29;;;;;;;6.40;4.30;;;;;;;6.53;100.00;94805.34;1057927;28;20027;-65
2021/01/29 01:27:59;;;;;;;5.33;4.23;;;;;;;6.51;100.00;94805.63;1057941;28;20122;-65
2021/01/29 01:28:30;;;;;;;5.07;4.40;;;;;;;6.48;100.00;94816.00;1057930;28;20016;-65
2021/01/29 01:29:00;;;;;;;5.37;4.57;;;;;;;6.49;100.00;94804.31;1057817;28;20021;-65
2021/01/29 01:29:31;;;;;;;5.30;4.80;;;;;;;6.50;100.00;94803.25;1058080;28;20019;-66
2021/01/29 01:30:04;;;;;;;4.87;4.07;;;;;;;6.54;100.00;94801.63;1058272;28;20008;-65
2021/01/29 01:30:36;;;;;;;4.65;4.05;;;;;;;6.52;100.00;94798.47;1058563;28;20050;-65
2021/01/29 01:31:06;;;;;;;5.35;4.10;;;;;;;6.53;100.00;94797.38;1057145;27;20020;-65
2021/01/29 01:31:37;;;;;;;5.27;4.40;;;;;;;6.51;100.00;94792.38;1057185;28;20051;-65
2021/01/29 01:32:07;;;;;;;4.97;4.30;;;;;;;6.53;100.00;94792.09;1057155;28;20472;-65
2021/01/29 01:32:38;;;;;;;5.37;4.27;;;;;;;6.54;100.00;94798.97;1057114;28;20024;-65
2021/01/29 01:33:08;;;;;;;4.90;4.10;;;;;;;6.56;100.00;94780.94;1057149;28;20035;-65
2021/01/29 01:33:39;;;;;;;4.07;3.67;;;;;;;6.61;100.00;94788.88;1057121;28;20034;-65
2021/01/29 01:34:09;;;;;;;4.97;4.07;;;;;;;6.62;100.00;94784.34;1057094;28;20514;-65
2021/01/29 01:34:40;;;;;;;4.63;3.93;;;;;;;6.65;100.00;94789.09;1057064;28;20034;-65
2021/01/29 01:35:11;;;;;;;5.43;4.30;;;;;;;6.59;100.00;94780.38;1057166;28;20216;-65
2021/01/29 01:35:41;;;;;;;5.30;4.38;;;;;;;6.60;100.00;94778.50;1056065;27;20047;-65
2021/01/29 01:36:13;;;;;;;6.67;4.27;;;;;;;6.59;100.00;94780.38;1052445;28;20474;-65
2021/01/29 01:36:44;;;;;;;4.80;4.30;;;;;;;6.60;100.00;94775.84;1052949;28;20020;-65
2021/01/29 01:37:14;;;;;;;4.80;3.83;;;;;;;6.61;100.00;94774.81;1052972;28;20027;-65
2021/01/29 01:37:44;;;;;;;5.37;4.50;;;;;;;6.61;100.00;94767.63;1052932;28;20036;-65
2021/01/29 01:38:15;;;;;;;5.50;4.30;;;;;;;6.60;100.00;94762.56;1052911;28;20124;-65
2021/01/29 01:38:45;;;;;;;4.93;4.43;;;;;;;6.57;100.00;94771.91;1052843;28;20024;-65
2021/01/29 01:39:16;;;;;;;5.50;4.57;;;;;;;6.58;100.00;94767.38;1052834;28;20023;-65
2021/01/29 01:39:46;;;;;;;5.57;4.77;;;;;;;6.60;100.00;94771.31;1052965;28;20059;-65
2021/01/29 01:40:20;;;;;;;4.97;4.47;;;;;;;6.58;100.00;94773.47;1052905;28;20016;-65
2021/01/29 01:40:51;;;;;;;4.30;3.90;;;;;;;6.59;100.00;94764.44;1052741;28;20484;-65
2021/01/29 01:41:21;;;;;;;4.87;3.90;;;;;;;6.63;100.00;94754.06;1052889;28;20110;-65
2021/01/29 01:41:52;;;;;;;5.70;4.57;;;;;;;6.61;100.00;94759.66;1052987;28;20024;-65
2021/01/29 01:42:23;;;;;;;5.25;4.18;;;;;;;6.63;100.00;94760.16;1052801;28;20028;-65
2021/01/29 01:42:53;;;;;;;4.70;4.13;;;;;;;6.63;100.00;94757.50;1052533;28;20024;-65
2021/01/29 01:43:23;;;;;;;4.77;4.10;;;;;;;6.62;100.00;94744.53;1052534;28;20019;-65
2021/01/29 01:43:54;;;;;;;5.00;4.27;;;;;;;6.61;100.00;94749.03;1052624;28;20028;-65
2021/01/29 01:44:31;;;;;;;4.93;4.40;;;;;;;6.57;100.00;94741.91;1048366;28;20020;-65
2021/01/29 01:45:01;;;;;;;4.63;4.05;;;;;;;6.54;100.00;94747.75;1052592;28;20031;-65
2021/01/29 01:45:31;;;;;;;4.80;4.27;;;;;;;6.56;100.00;94742.97;1052493;28;20028;-65
2021/01/29 01:46:12;;;;;;;4.90;4.13;;;;;;;6.55;100.00;94742.16;1052544;28;20031;-65
2021/01/29 01:46:42;;;;;;;;;;;;;;;6.54;100.00;94737.91;1053345;28;20118;-65
2021/01/29 01:47:33;;;;;;;6.50;4.43;;;;;;;6.53;100.00;94736.34;1052828;28;20276;-65
2021/01/29 01:48:14;;;;;;;4.82;3.97;;;;;;;6.50;100.00;94728.94;1052453;28;20145;-65
2021/01/29 01:48:49;;;;;;;5.05;4.30;;;;;;;6.49;100.00;94737.94;1048491;28;20445;-65
2021/01/29 01:49:19;;;;;;;5.28;4.40;;;;;;;6.48;100.00;94733.72;1044208;28;20281;-65
2021/01/29 01:49:54;;;;;;;5.30;4.37;;;;;;;6.50;100.00;94731.59;1052505;28;20081;-65
2021/01/29 01:50:35;;;;;;;5.10;4.25;;;;;;;6.50;100.00;94731.59;1048332;28;20072;-65
2021/01/29 01:51:05;;;;;;;7.45;4.43;;;;;;;6.53;100.00;94731.03;1045371;28;20047;-65
2021/01/29 01:51:38;;;;;;;5.47;4.73;;;;;;;6.53;100.00;94733.69;1039897;28;20067;-65
2021/01/29 01:52:30;;;;;;;5.15;4.15;;;;;;;6.53;100.00;94732.91;1044039;28;20017;-65
2021/01/29 01:53:02;;;;;;;5.05;4.25;;;;;;;6.50;100.00;94729.72;1043079;28;20111;-65
2021/01/29 01:53:36;;;;;;;5.35;4.40;;;;;;;6.50;100.00;94728.94;1047746;28;20047;-65
2021/01/29 01:54:15;;;;;;;5.82;4.35;;;;;;;6.50;100.00;94724.44;1047906;28;20038;-65
2021/01/29 01:54:51;;;;;;;5.15;4.15;;;;;;;6.54;100.00;94723.84;1041969;28;20045;-65
2021/01/29 01:55:23;;;;;;;6.38;4.25;;;;;;;6.52;100.00;94718.84;1040195;28;20072;-65
2021/01/29 01:56:06;;;;;;;5.28;4.47;;;;;;;6.53;100.00;94716.97;1042265;28;20532;-65
2021/01/29 01:56:42;;;;;;;5.38;4.25;;;;;;;6.51;100.00;94714.59;1046314;28;20032;-65
2021/01/29 01:57:13;;;;;;;5.38;4.35;;;;;;;6.51;100.00;94711.94;1051117;28;20052;-65
2021/01/29 01:57:46;;;;;;;4.45;3.88;;;;;;;6.50;100.00;94716.47;1052548;28;20110;-65
2021/01/29 01:58:16;;;;;;;4.35;3.95;;;;;;;6.52;100.00;94713.53;1050171;28;20077;-65
2021/01/29 01:59:03;;;;;;;4.50;3.80;;;;;;;6.54;100.00;94708.72;1048358;28;20020;-65
2021/01/29 01:59:46;;;;;;;4.25;3.80;;;;;;;6.53;100.00;94703.69;1048145;28;20027;-65
2021/01/29 02:00:28;;;;;;;4.70;4.05;;;;;;;6.55;100.00;94704.19;1044013;28;20033;-65
2021/01/29 02:00:58;;;;;;;4.40;3.70;;;;;;;6.55;100.00;94701.53;1044177;28;20020;-65
2021/01/29 02:01:28;;;;;;;5.00;4.13;;;;;;;6.57;100.00;94707.41;1044029;28;20036;-65
2021/01/29 02:01:59;;;;;;;5.23;4.20;;;;;;;6.56;100.00;94700.50;1041865;28;20032;-65
2021/01/29 02:02:30;;;;;;;5.90;4.47;;;;;;;6.53;100.00;94698.38;1044438;28;20036;-65
2021/01/29 02:03:06;;;;;;;5.40;4.15;;;;;;;6.53;100.00;94703.69;1040279;28;20032;-65
2021/01/29 02:03:36;;;;;;;4.80;4.20;;;;;;;6.50;100.00;94699.75;1040896;28;20478;-65
2021/01/29 02:04:07;;;;;;;4.80;4.07;;;;;;;6.53;100.00;94690.44;1044158;28;20017;-65
2021/01/29 02:04:40;;;;;;;4.90;3.90;;;;;;;6.53;100.00;94703.69;1041682;28;20028;-65
2021/01/29 02:05:16;;;;;;;4.65;3.80;;;;;;;6.53;100.00;94698.38;1041067;28;20097;-65
2021/01/29 02:05:47;;;;;;;5.43;4.10;;;;;;;6.56;100.00;94701.28;1039975;28;20025;-65
2021/01/29 02:06:17;;;;;;;4.83;3.90;;;;;;;6.55;100.00;94701.53;1033014;28;20383;-65
2021/01/29 02:07:17;;;;;;;4.37;3.70;;;;;;;6.57;100.00;94689.59;1033246;28;20661;-65
2021/01/29 02:07:50;;;;;;;4.20;3.58;;;;;;;6.55;100.00;94690.94;1031618;28;20158;-65
2021/01/29 02:08:22;;;;;;;4.60;4.05;;;;;;;6.52;100.00;94686.97;1031536;28;20166;-65
2021/01/29 02:08:52;;;;;;;5.13;3.83;;;;;;;6.57;100.00;94691.47;1038819;28;20099;-65
2021/01/29 02:09:23;;;;;;;4.63;3.73;;;;;;;6.59;100.00;94687.44;1031882;28;20437;-65
2021/01/29 02:09:54;;;;;;;5.07;3.78;;;;;;;6.58;100.00;94685.88;1032969;28;20030;-65
2021/01/29 02:10:26;;;;;;;4.60;3.77;;;;;;;6.59;100.00;94684.78;1040324;28;20494;-65
2021/01/29 02:10:57;;;;;;;3.80;3.38;;;;;;;6.58;100.00;94682.44;1044084;28;20079;-65
2021/01/29 02:11:27;;;;;;;5.03;3.92;;;;;;;6.56;100.00;94679.28;1048146;28;20103;-65
2021/01/29 02:11:58;;;;;;;4.57;3.60;;;;;;;6.51;100.00;94686.19;1048220;28;20028;-65
2021/01/29 02:12:28;;;;;;;4.60;3.70;;;;;;;6.55;100.00;94682.97;1052080;28;20747;-65
2021/01/29 02:12:59;;;;;;;4.30;3.77;;;;;;;6.51;100.00;94682.75;1052425;28;20030;-65
2021/01/29 02:13:30;;;;;;;4.53;3.75;;;;;;;6.51;100.00;94682.75;1052461;28;20016;-65
2021/01/29 02:14:00;;;;;;;4.33;3.90;;;;;;;6.50;100.00;94683.81;1052419;28;20036;-65
2021/01/29 02:14:31;;;;;;;4.40;3.60;;;;;;;6.49;100.00;94684.88;1052731;28;20019;-65
2021/01/29 02:15:03;;;;;;;4.67;3.70;;;;;;;6.49;100.00;94685.66;1052778;28;20027;-65
2021/01/29 02:15:35;;;;;;;6.07;4.13;;;;;;;6.50;100.00;94691.78;1052769;28;20322;-65
2021/01/29 02:16:16;;;;;;;4.47;3.60;;;;;;;6.52;100.00;94686.97;1052829;28;20077;-65
2021/01/29 02:16:50;;;;;;;4.28;3.45;;;;;;;6.44;100.00;94685.69;1052374;28;20031;-64
2021/01/29 02:17:40;;;;;;;4.72;3.47;;;;;;;6.45;100.00;94678.53;1044077;28;20502;-64
2021/01/29 02:18:32;;;;;;;4.57;3.50;;;;;;;6.47;100.00;94684.34;1035927;28;20026;-65
2021/01/29 02:19:14;;;;;;;5.15;3.58;;;;;;;6.49;100.00;94676.91;1043000;28;20474;-65
2021/01/29 02:20:05;;;;;;;4.43;3.30;;;;;;;6.49;100.00;94679.56;1050781;28;20048;-65
2021/01/29 02:20:48;;;;;;;3.60;3.00;;;;;;;6.49;100.00;94685.66;1052535;28;20024;-64
2021/01/29 02:21:37;;;;;;;3.55;3.03;;;;;;;6.51;100.00;94688.84;1052699;28;20160;-64
2021/01/29 02:22:28;;;;;;;5.13;3.40;;;;;;;6.50;100.00;94689.13;1052778;28;20043;-64
2021/01/29 02:23:30;;;;;;;4.40;3.30;;;;;;;6.52;100.00;94681.66;1052287;28;20024;-64
2021/01/29 02:24:05;;;;;;;4.20;3.20;;;;;;;6.56;100.00;94679.28;1052474;28;20523;-64
2021/01/29 02:24:44;;;;;;;4.28;3.20;;;;;;;6.58;100.00;94682.44;1052465;28;20027;-64
2021/01/29 02:25:28;;;;;;;4.03;2.90;;;;;;;6.59;100.00;94674.19;1052393;28;20456;-64
2021/01/29 02:26:24;;;;;;;3.85;2.90;;;;;;;6.60;100.00;94681.06;1048235;28;20081;-64
2021/01/29 02:27:22;;;;;;;4.70;2.97;;;;;;;6.58;100.00;94679.78;1049868;28;20536;-64
2021/01/29 02:27:56;;;;;;;4.65;3.05;;;;;;;6.61;100.00;94673.91;1044191;28;20040;-64
2021/01/29 02:28:29;;;;;;;4.35;3.30;;;;;;;6.63;100.00;94675.22;1031906;28;20069;-64
2021/01/29 02:29:16;;;;;;;3.60;2.70;;;;;;;6.63;100.00;94671.78;1035922;28;20232;-64
2021/01/29 02:30:13;;;;;;;4.68;3.38;;;;;;;6.61;100.00;94672.06;1043134;28;20036;-64
2021/01/29 02:31:04;;;;;;;6.03;2.97;;;;;;;6.59;100.00;94674.19;1043981;28;20055;-64
2021/01/29 02:31:34;;;;;;;4.68;3.20;;;;;;;6.61;100.00;94672.06;1046714;28;20092;-64
2021/01/29 02:32:23;;;;;;;4.93;3.00;;;;;;;6.57;100.00;94673.66;1048224;28;20440;-64
2021/01/29 02:33:08;;;;;;;4.38;2.70;;;;;;;6.56;100.00;94666.78;1052348;28;20059;-64
2021/01/29 02:34:16;;;;;;;4.07;2.90;;;;;;;6.61;100.00;94666.75;1052329;28;20349;-64
2021/01/29 02:35:29;;;;;;;3.67;2.92;;;;;;;6.59;100.00;94668.88;1052418;28;20028;-64